createdAt,value
2022-10-06T00:25:06.652Z,495
2022-10-06T00:40:04.567Z,494
2022-10-06T01:10:04.533Z,493
2022-10-06T01:30:05.348Z,492
2022-10-06T02:00:03.570Z,491
2022-10-06T02:15:02.408Z,491
2022-10-06T02:30:06.409Z,490
2022-10-06T03:00:04.883Z,490
2022-10-06T03:30:05.359Z,489
2022-10-06T03:45:04.529Z,488
2022-10-06T04:00:06.751Z,487
2022-10-06T04:15:02.844Z,488
2022-10-06T04:30:05.712Z,489
2022-10-06T04:45:04.926Z,491
2022-10-06T05:00:04.538Z,494
2022-10-06T05:15:05.681Z,500
2022-10-06T05:30:02.889Z,506
2022-10-06T05:45:02.686Z,512
2022-10-06T06:00:02.720Z,517
2022-10-06T06:15:02.638Z,521
2022-10-06T06:35:02.623Z,525
2022-10-06T06:50:02.548Z,526
2022-10-06T07:05:06.476Z,527
2022-10-06T07:20:03.387Z,528
2022-10-06T07:35:04.897Z,529
2022-10-06T08:10:04.754Z,529
2022-10-06T08:25:04.420Z,530
2022-10-06T08:45:04.834Z,530
2022-10-06T09:00:04.491Z,530
2022-10-06T09:50:02.731Z,530
2022-10-06T10:05:04.684Z,530
2022-10-06T10:50:03.818Z,528
2022-10-06T11:05:06.724Z,527
2022-10-06T11:35:03.748Z,528
2022-10-06T11:50:05.567Z,527
2022-10-06T12:25:04.813Z,527
2022-10-06T12:40:04.568Z,531
2022-10-06T12:55:04.830Z,534
2022-10-06T13:10:02.570Z,537
2022-10-06T13:25:03.477Z,541
2022-10-06T13:40:02.915Z,544
2022-10-06T14:10:02.695Z,545
2022-10-06T14:45:04.801Z,544
2022-10-06T15:15:03.900Z,544
2022-10-06T15:50:03.556Z,545
2022-10-06T16:20:04.990Z,545
2022-10-06T16:35:02.624Z,543
2022-10-06T16:50:06.576Z,542
2022-10-06T17:25:04.636Z,542
2022-10-06T17:55:02.511Z,542
2022-10-06T18:10:05.436Z,540
2022-10-06T18:25:02.620Z,538
2022-10-06T18:40:02.538Z,537
2022-10-06T18:55:02.379Z,535
2022-10-06T19:10:03.800Z,532
2022-10-06T19:30:02.800Z,530
2022-10-06T19:45:02.808Z,528
2022-10-06T20:00:02.630Z,526
2022-10-06T20:15:04.449Z,524
2022-10-06T20:35:06.782Z,522
2022-10-06T20:50:02.662Z,520
2022-10-06T21:05:02.603Z,517
2022-10-06T21:20:04.438Z,514
2022-10-06T21:35:06.585Z,511
2022-10-06T21:50:03.572Z,509
2022-10-06T22:05:05.770Z,507
2022-10-06T22:20:05.046Z,506
2022-10-06T22:40:04.608Z,505
2022-10-06T22:55:06.820Z,504
2022-10-06T23:10:02.856Z,503
2022-10-06T23:25:03.810Z,502
2022-10-06T23:55:06.531Z,502
